createdAt,value
2018-11-12T00:00:13.712Z,2.00
2018-11-12T00:02:42.141Z,2.20
2018-11-12T00:05:10.534Z,2.10
2018-11-12T00:07:38.959Z,2.50
2018-11-12T00:10:07.637Z,2.30
2018-11-12T00:12:36.040Z,2.10
2018-11-12T00:15:04.729Z,2.40
2018-11-12T00:17:33.193Z,2.10
2018-11-12T00:20:01.680Z,2.30
2018-11-12T00:22:30.093Z,2.20
2018-11-12T00:24:58.642Z,2.33
2018-11-12T00:27:27.074Z,1.90
2018-11-12T00:29:55.483Z,2.10
2018-11-12T00:32:23.871Z,2.10
2018-11-12T00:34:52.562Z,2.00
2018-11-12T00:37:21.116Z,2.27
2018-11-12T00:39:49.534Z,2.50
2018-11-12T00:42:17.907Z,2.20
2018-11-12T00:44:46.361Z,2.30
2018-11-12T00:47:14.794Z,2.43
2018-11-12T00:49:43.450Z,2.13
2018-11-12T00:52:11.856Z,2.30
2018-11-12T00:54:40.268Z,2.40
2018-11-12T00:57:08.663Z,2.00
2018-11-12T00:59:37.071Z,2.10
2018-11-12T01:02:05.527Z,1.90
2018-11-12T01:04:33.947Z,2.23
2018-11-12T01:07:02.601Z,2.20
2018-11-12T01:09:31.018Z,2.40
2018-11-12T01:11:59.474Z,2.33
2018-11-12T01:14:27.935Z,2.20
2018-11-12T01:16:56.325Z,2.00
2018-11-12T01:19:24.737Z,2.20
2018-11-12T01:21:53.161Z,1.80
2018-11-12T01:24:21.600Z,2.27
2018-11-12T01:26:50.041Z,2.17
2018-11-12T01:29:18.474Z,2.10
2018-11-12T01:31:46.890Z,2.47
2018-11-12T01:34:15.308Z,2.13
2018-11-12T01:36:43.691Z,2.13
2018-11-12T01:39:12.564Z,2.33
2018-11-12T01:41:41.968Z,2.60
2018-11-12T01:44:10.386Z,2.47
2018-11-12T01:46:38.763Z,2.50
2018-11-12T01:49:07.241Z,2.47
2018-11-12T01:51:36.062Z,2.97
2018-11-12T01:54:04.466Z,2.70
2018-11-12T01:56:33.016Z,2.73
2018-11-12T01:59:01.406Z,2.70
2018-11-12T02:01:29.816Z,2.70
2018-11-12T02:03:58.282Z,2.77
2018-11-12T02:06:26.704Z,2.33
2018-11-12T02:08:55.206Z,2.60
2018-11-12T02:11:23.498Z,2.83
2018-11-12T02:13:51.892Z,2.97
2018-11-12T02:16:20.304Z,2.80
2018-11-12T02:18:48.701Z,3.17
2018-11-12T02:21:17.102Z,2.77
2018-11-12T02:23:45.506Z,2.63
2018-11-12T02:26:13.889Z,2.50
2018-11-12T02:28:42.304Z,2.20
2018-11-12T02:31:10.734Z,2.37
2018-11-12T02:33:39.116Z,2.03
2018-11-12T02:36:07.527Z,1.90
2018-11-12T02:38:35.932Z,2.03
2018-11-12T02:41:04.374Z,1.70
2018-11-12T02:43:32.748Z,1.70
2018-11-12T02:46:01.178Z,1.87
2018-11-12T02:48:29.599Z,1.87
2018-11-12T02:50:57.996Z,1.77
2018-11-12T02:53:26.417Z,1.73
2018-11-12T02:55:54.843Z,1.80
2018-11-12T02:58:23.252Z,1.80
2018-11-12T03:00:51.638Z,2.00
2018-11-12T03:03:20.033Z,2.10
2018-11-12T03:05:48.440Z,1.80
2018-11-12T03:08:16.855Z,1.80
2018-11-12T03:10:45.245Z,2.10
2018-11-12T03:13:13.664Z,1.83
2018-11-12T03:15:42.069Z,1.80
2018-11-12T03:18:10.490Z,1.60
2018-11-12T03:20:38.879Z,1.80
2018-11-12T03:23:07.283Z,1.50
2018-11-12T03:25:35.689Z,1.50
2018-11-12T03:28:04.115Z,1.50
2018-11-12T03:30:32.590Z,1.40
2018-11-12T03:33:01.024Z,1.47
2018-11-12T03:35:29.442Z,1.50
2018-11-12T03:37:57.826Z,1.50
2018-11-12T03:40:26.234Z,1.50
2018-11-12T03:42:54.602Z,1.50
2018-11-12T03:45:24.249Z,1.50
2018-11-12T03:47:52.730Z,1.30
2018-11-12T03:50:22.453Z,1.30
2018-11-12T03:52:50.823Z,1.63
2018-11-12T03:55:20.445Z,1.57
2018-11-12T03:57:48.863Z,1.30
2018-11-12T04:00:19.486Z,1.40
2018-11-12T04:02:47.886Z,1.37
2018-11-12T04:05:16.381Z,1.50
2018-11-12T04:07:44.805Z,1.60
2018-11-12T04:10:16.370Z,2.10
2018-11-12T04:12:44.832Z,1.30
2018-11-12T04:15:15.004Z,1.50
2018-11-12T04:17:43.401Z,1.47
2018-11-12T04:20:13.843Z,1.50
2018-11-12T04:22:46.504Z,1.80
2018-11-12T04:25:14.892Z,1.57
2018-11-12T04:27:43.301Z,1.60
2018-11-12T04:30:13.778Z,1.47
2018-11-12T04:32:43.212Z,1.73
2018-11-12T04:35:12.095Z,1.60
2018-11-12T04:37:40.666Z,1.70
2018-11-12T04:40:11.929Z,1.50
2018-11-12T04:42:40.910Z,3.17
2018-11-12T04:45:11.240Z,2.00
2018-11-12T04:47:39.696Z,1.60
2018-11-12T04:50:10.242Z,1.60
2018-11-12T04:52:38.826Z,1.70
2018-11-12T04:55:08.055Z,2.00
2018-11-12T04:57:36.816Z,1.70
2018-11-12T05:00:08.413Z,1.90
2018-11-12T05:02:36.802Z,1.90
2018-11-12T05:05:06.275Z,1.80
2018-11-12T05:07:35.068Z,1.90
2018-11-12T05:10:03.566Z,1.80
2018-11-12T05:12:31.969Z,1.90
2018-11-12T05:15:00.344Z,2.00
2018-11-12T05:17:28.748Z,1.80
2018-11-12T05:19:57.148Z,1.80
2018-11-12T05:22:25.534Z,2.30
2018-11-12T05:24:53.983Z,2.10
2018-11-12T05:27:22.531Z,1.93
2018-11-12T05:29:50.917Z,2.20
2018-11-12T05:32:19.333Z,1.90
2018-11-12T05:34:47.755Z,1.90
2018-11-12T05:37:16.194Z,2.10
2018-11-12T05:39:44.600Z,2.40
2018-11-12T05:42:12.981Z,2.00
2018-11-12T05:44:41.443Z,2.10
2018-11-12T05:47:09.800Z,2.00
2018-11-12T05:49:38.247Z,1.70
2018-11-12T05:52:06.657Z,1.80
2018-11-12T05:54:35.083Z,2.00
2018-11-12T05:57:03.747Z,2.20
2018-11-12T05:59:32.183Z,2.30
2018-11-12T06:02:00.563Z,1.90
2018-11-12T06:04:28.988Z,2.30
2018-11-12T06:06:57.431Z,2.00
2018-11-12T06:09:25.836Z,2.07
2018-11-12T06:11:54.225Z,2.13
2018-11-12T06:14:22.628Z,2.20
2018-11-12T06:16:51.042Z,2.30
2018-11-12T06:19:19.439Z,2.20
2018-11-12T06:21:47.893Z,2.50
2018-11-12T06:24:16.362Z,2.10
2018-11-12T06:26:44.769Z,2.20
2018-11-12T06:29:13.148Z,2.27
2018-11-12T06:31:41.580Z,2.33
2018-11-12T06:34:10.032Z,2.50
2018-11-12T06:36:38.523Z,2.40
2018-11-12T06:39:10.852Z,2.30
2018-11-12T06:41:39.582Z,2.40
2018-11-12T06:44:08.893Z,2.40
2018-11-12T06:46:37.455Z,2.50
2018-11-12T06:49:06.021Z,2.53
2018-11-12T06:51:34.477Z,2.60
2018-11-12T06:54:02.946Z,2.70
2018-11-12T06:56:31.433Z,2.50
2018-11-12T06:58:59.965Z,2.43
2018-11-12T07:01:28.374Z,2.10
2018-11-12T07:03:56.775Z,2.30
2018-11-12T07:06:25.420Z,2.37
2018-11-12T07:08:53.942Z,2.40
2018-11-12T07:11:23.071Z,2.50
2018-11-12T07:13:54.653Z,2.50
2018-11-12T07:16:23.117Z,2.80
2018-11-12T07:18:51.700Z,2.80
2018-11-12T07:21:20.719Z,2.70
2018-11-12T07:23:49.146Z,2.90
2018-11-12T07:26:17.563Z,2.80
2018-11-12T07:28:45.973Z,2.63
2018-11-12T07:31:15.232Z,2.70
2018-11-12T07:33:43.684Z,3.00
2018-11-12T07:36:12.128Z,3.00
2018-11-12T07:38:40.684Z,3.00
2018-11-12T07:41:09.573Z,3.20
2018-11-12T07:43:38.104Z,3.10
2018-11-12T07:46:06.560Z,3.50
2018-11-12T07:48:35.067Z,3.50
2018-11-12T07:51:03.472Z,3.20
2018-11-12T07:53:31.971Z,3.27
2018-11-12T07:56:00.468Z,3.57
2018-11-12T07:58:28.893Z,3.27
2018-11-12T08:00:57.425Z,3.63
2018-11-12T08:03:25.878Z,3.60
2018-11-12T08:05:54.457Z,4.00
2018-11-12T08:08:23.054Z,3.47
2018-11-12T08:10:51.518Z,3.60
2018-11-12T08:13:20.004Z,3.53
2018-11-12T08:15:48.480Z,3.97
2018-11-12T08:18:16.900Z,3.87
2018-11-12T08:20:45.359Z,3.87
2018-11-12T08:23:13.807Z,3.70
2018-11-12T08:25:43.291Z,3.63
2018-11-12T08:28:12.004Z,3.47
2018-11-12T08:30:40.436Z,4.23
2018-11-12T08:33:08.944Z,3.77
2018-11-12T08:35:37.339Z,3.70
2018-11-12T08:38:06.409Z,3.50
2018-11-12T08:40:36.107Z,3.83
2018-11-12T08:43:04.827Z,3.33
2018-11-12T08:45:33.345Z,3.43
2018-11-12T08:48:13.394Z,3.90
2018-11-12T08:50:42.026Z,3.30
2018-11-12T08:53:11.565Z,3.73
2018-11-12T08:55:40.028Z,3.80
2018-11-12T08:58:08.759Z,3.40
2018-11-12T09:00:37.063Z,3.60
2018-11-12T09:03:05.497Z,3.63
2018-11-12T09:05:33.965Z,4.10
2018-11-12T09:08:03.206Z,3.53
2018-11-12T09:10:34.413Z,3.70
2018-11-12T09:13:03.113Z,3.60
2018-11-12T09:15:31.632Z,3.90
2018-11-12T09:18:00.645Z,3.60
2018-11-12T09:20:29.639Z,4.10
2018-11-12T09:22:58.663Z,4.03
2018-11-12T09:25:28.146Z,3.90
2018-11-12T09:27:57.778Z,3.50
2018-11-12T09:30:28.849Z,3.70
2018-11-12T09:32:58.951Z,4.00
2018-11-12T09:35:28.792Z,3.70
2018-11-12T09:37:58.068Z,3.50
2018-11-12T09:40:36.687Z,3.70
2018-11-12T09:43:09.648Z,3.97
2018-11-12T09:45:42.923Z,4.10
2018-11-12T09:48:13.030Z,3.63
2018-11-12T09:50:41.547Z,4.07
2018-11-12T09:53:10.056Z,3.40
2018-11-12T09:55:39.480Z,4.00
2018-11-12T09:58:08.460Z,4.20
2018-11-12T10:00:37.389Z,4.20
2018-11-12T10:03:07.217Z,4.07
2018-11-12T10:05:36.274Z,3.93
2018-11-12T10:08:12.278Z,4.27
2018-11-12T10:10:43.649Z,3.90
2018-11-12T10:13:15.267Z,4.10
2018-11-12T10:15:44.645Z,4.67
2018-11-12T10:20:38.842Z,4.50
2018-11-12T10:23:07.551Z,4.63
2018-11-12T10:25:36.074Z,3.90
2018-11-12T10:28:04.603Z,4.20
2018-11-12T10:30:33.542Z,3.90
2018-11-12T10:33:02.072Z,4.03
2018-11-12T10:35:30.579Z,4.07
2018-11-12T10:37:58.997Z,4.03
2018-11-12T10:40:27.624Z,4.20
2018-11-12T10:42:56.066Z,4.10
2018-11-12T10:45:24.509Z,3.80
2018-11-12T10:47:53.649Z,3.90
2018-11-12T10:50:22.406Z,4.40
2018-11-12T10:52:51.120Z,4.60
2018-11-12T10:55:21.237Z,4.30
2018-11-12T10:57:49.813Z,4.87
2018-11-12T11:00:24.782Z,4.87
2018-11-12T11:02:59.714Z,4.60
2018-11-12T11:05:28.168Z,4.87
2018-11-12T11:07:56.588Z,4.53
2018-11-12T11:10:26.382Z,4.90
2018-11-12T11:13:04.682Z,5.03
2018-11-12T11:15:34.419Z,4.87
2018-11-12T11:18:02.871Z,4.93
2018-11-12T11:20:35.690Z,5.20
2018-11-12T11:23:04.191Z,5.63
2018-11-12T11:25:32.792Z,5.60
2018-11-12T11:28:01.540Z,5.37
2018-11-12T11:30:30.034Z,5.53
2018-11-12T11:32:58.535Z,5.67
2018-11-12T11:35:27.061Z,5.50
2018-11-12T11:37:55.528Z,5.93
2018-11-12T11:40:25.532Z,5.83
2018-11-12T11:42:54.041Z,5.90
2018-11-12T11:45:22.842Z,6.00
2018-11-12T11:47:52.315Z,6.00
2018-11-12T11:50:22.008Z,6.33
2018-11-12T11:52:50.404Z,6.30
2018-11-12T11:55:20.214Z,6.83
2018-11-12T11:57:49.462Z,7.77
2018-11-12T12:00:27.140Z,6.90
2018-11-12T12:02:58.823Z,7.77
2018-11-12T12:05:27.907Z,7.63
2018-11-12T12:07:57.135Z,7.77
2018-11-12T12:10:25.611Z,6.97
2018-11-12T12:12:54.220Z,7.00
2018-11-12T12:15:23.514Z,7.33
2018-11-12T12:17:52.023Z,7.77
2018-11-12T12:20:22.843Z,7.70
2018-11-12T12:22:51.383Z,7.43
2018-11-12T12:25:20.730Z,8.13
2018-11-12T12:27:49.980Z,7.80
2018-11-12T12:30:21.040Z,7.60
2018-11-12T12:32:50.456Z,6.73
2018-11-12T12:35:18.986Z,7.37
2018-11-12T12:37:47.964Z,7.53
2018-11-12T12:40:17.646Z,7.73
2018-11-12T12:42:46.106Z,7.47
2018-11-12T12:45:16.242Z,8.03
2018-11-12T12:47:44.942Z,8.57
2018-11-12T12:50:14.340Z,8.60
2018-11-12T12:52:42.792Z,8.80
2018-11-12T12:55:12.306Z,9.17
2018-11-12T12:57:41.413Z,9.70
2018-11-12T13:00:18.300Z,9.83
2018-11-12T13:02:48.491Z,10.80
2018-11-12T13:05:17.733Z,9.77
2018-11-12T13:07:47.266Z,10.20
2018-11-12T13:10:20.029Z,10.70
2018-11-12T13:12:49.002Z,11.60
2018-11-12T13:15:18.596Z,10.73
2018-11-12T13:17:47.682Z,10.97
2018-11-12T13:20:18.245Z,11.87
2018-11-12T13:22:47.380Z,11.83
2018-11-12T13:25:15.984Z,12.10
2018-11-12T13:27:44.999Z,12.17
2018-11-12T13:30:20.929Z,12.50
2018-11-12T13:32:49.574Z,12.73
2018-11-12T13:35:21.105Z,14.40
2018-11-12T13:37:49.578Z,14.10
2018-11-12T13:40:19.393Z,13.77
2018-11-12T13:42:51.353Z,12.77
2018-11-12T13:45:20.069Z,11.40
2018-11-12T13:47:48.520Z,11.83
2018-11-12T13:50:18.625Z,11.77
2018-11-12T13:52:47.449Z,11.07
2018-11-12T13:55:17.138Z,10.37
2018-11-12T13:57:45.602Z,10.87
2018-11-12T14:00:15.347Z,11.30
2018-11-12T14:02:44.626Z,10.70
2018-11-12T14:05:14.822Z,10.97
2018-11-12T14:07:43.858Z,10.70
2018-11-12T14:10:13.564Z,10.23
2018-11-12T14:12:42.516Z,10.50
2018-11-12T14:15:13.785Z,9.50
2018-11-12T14:17:42.789Z,9.10
2018-11-12T14:20:11.313Z,8.80
2018-11-12T14:22:39.844Z,8.57
2018-11-12T14:25:09.834Z,9.13
2018-11-12T14:27:38.382Z,8.47
2018-11-12T14:30:08.305Z,8.87
2018-11-12T14:32:37.195Z,9.63
2018-11-12T14:35:06.769Z,8.90
2018-11-12T14:37:35.429Z,9.63
2018-11-12T14:40:04.855Z,9.67
2018-11-12T14:42:34.220Z,8.93
2018-11-12T14:45:02.671Z,9.63
2018-11-12T14:47:31.106Z,9.73
2018-11-12T14:49:59.565Z,10.13
2018-11-12T14:52:27.995Z,9.87
2018-11-12T14:54:56.545Z,11.27
2018-11-12T14:57:24.897Z,10.53
2018-11-12T14:59:53.356Z,10.57
2018-11-12T15:02:21.784Z,10.90
2018-11-12T15:04:50.186Z,11.27
2018-11-12T15:07:18.724Z,11.13
2018-11-12T15:09:47.157Z,11.53
2018-11-12T15:12:15.645Z,13.13
2018-11-12T15:14:44.157Z,13.67
2018-11-12T15:17:12.601Z,13.13
2018-11-12T15:19:41.058Z,13.53
2018-11-12T15:22:09.533Z,13.83
2018-11-12T15:24:38.066Z,13.77
2018-11-12T15:27:07.223Z,15.10
2018-11-12T15:29:36.321Z,13.70
2018-11-12T15:32:05.244Z,14.03
2018-11-12T15:34:33.752Z,14.27
2018-11-12T15:37:02.370Z,18.07
2018-11-12T15:39:30.705Z,15.93
2018-11-12T15:41:59.136Z,18.30
2018-11-12T15:44:27.590Z,19.33
2018-11-12T15:46:56.000Z,19.47
2018-11-12T15:49:24.466Z,19.60
2018-11-12T15:51:52.897Z,20.17
2018-11-12T15:54:21.342Z,20.97
2018-11-12T15:56:49.754Z,20.33
2018-11-12T15:59:18.190Z,20.63
2018-11-12T16:01:46.635Z,21.47
2018-11-12T16:04:15.056Z,20.10
2018-11-12T16:06:43.737Z,20.53
2018-11-12T16:09:14.727Z,20.30
2018-11-12T16:11:43.872Z,21.90
2018-11-12T16:14:12.281Z,21.20
2018-11-12T16:16:40.705Z,21.70
2018-11-12T16:19:10.056Z,21.17
2018-11-12T16:21:38.530Z,20.50
2018-11-12T16:24:07.276Z,21.67
2018-11-12T16:26:35.960Z,20.73
2018-11-12T16:29:04.654Z,21.10
2018-11-12T16:31:33.068Z,21.73
2018-11-12T16:34:01.523Z,22.00
2018-11-12T16:36:29.948Z,22.37
2018-11-12T16:38:58.445Z,22.10
2018-11-12T16:41:26.969Z,23.20
2018-11-12T16:43:55.396Z,22.07
2018-11-12T16:46:23.837Z,22.03
2018-11-12T16:48:52.319Z,22.57
2018-11-12T16:51:20.849Z,21.63
2018-11-12T16:53:49.305Z,20.63
2018-11-12T16:56:17.772Z,20.60
2018-11-12T16:58:46.191Z,20.63
2018-11-12T17:01:14.699Z,21.50
2018-11-12T17:03:43.115Z,19.73
2018-11-12T17:06:11.564Z,19.63
2018-11-12T17:08:40.043Z,18.83
2018-11-12T17:11:08.475Z,17.67
2018-11-12T17:13:36.874Z,15.87
2018-11-12T17:16:05.376Z,15.50
2018-11-12T17:18:33.822Z,15.50
2018-11-12T17:21:02.345Z,14.03
2018-11-12T17:23:30.764Z,14.50
2018-11-12T17:25:59.233Z,13.83
2018-11-12T17:28:27.741Z,14.20
2018-11-12T17:30:56.295Z,13.63
2018-11-12T17:33:24.706Z,13.27
2018-11-12T17:35:53.130Z,13.37
2018-11-12T17:38:21.622Z,13.80
2018-11-12T17:40:50.082Z,13.07
2018-11-12T17:43:18.621Z,13.13
2018-11-12T17:45:47.021Z,13.50
2018-11-12T17:48:15.487Z,13.60
2018-11-12T17:50:43.920Z,13.70
2018-11-12T17:53:12.374Z,13.90
2018-11-12T17:55:40.807Z,13.43
2018-11-12T17:58:09.271Z,13.30
2018-11-12T18:00:37.867Z,13.20
2018-11-12T18:03:06.773Z,13.77
2018-11-12T18:05:35.256Z,13.43
2018-11-12T18:08:03.733Z,13.80
2018-11-12T18:10:32.140Z,14.33
2018-11-12T18:13:00.623Z,13.33
2018-11-12T18:15:29.065Z,13.67
2018-11-12T18:17:57.498Z,13.93
2018-11-12T18:20:27.243Z,14.23
2018-11-12T18:22:56.413Z,14.40
2018-11-12T18:25:24.790Z,14.63
2018-11-12T18:27:53.703Z,14.30
2018-11-12T18:30:24.925Z,15.00
2018-11-12T18:32:54.421Z,14.43
2018-11-12T18:35:22.863Z,13.87
2018-11-12T18:37:51.387Z,14.77
2018-11-12T18:40:21.380Z,14.77
2018-11-12T18:42:49.926Z,14.77
2018-11-12T18:45:19.716Z,14.67
2018-11-12T18:47:48.208Z,14.27
2018-11-12T18:50:19.125Z,14.90
2018-11-12T18:52:47.983Z,14.30
2018-11-12T18:55:16.379Z,14.43
2018-11-12T18:57:45.800Z,15.17
2018-11-12T19:00:15.798Z,14.83
2018-11-12T19:02:44.321Z,15.13
2018-11-12T19:05:15.093Z,15.93
2018-11-12T19:07:44.544Z,16.63
2018-11-12T19:10:14.774Z,18.20
2018-11-12T19:12:43.894Z,17.33
2018-11-12T19:15:14.934Z,17.40
2018-11-12T19:17:44.529Z,16.30
2018-11-12T19:20:13.409Z,18.53
2018-11-12T19:22:41.884Z,17.03
2018-11-12T19:25:11.615Z,17.90
2018-11-12T19:27:40.111Z,17.13
2018-11-12T19:30:11.209Z,17.47
2018-11-12T19:32:39.714Z,17.07
2018-11-12T19:35:09.552Z,17.43
2018-11-12T19:37:38.175Z,16.93
2018-11-12T19:40:08.544Z,17.70
2018-11-12T19:42:36.997Z,17.70
2018-11-12T19:45:06.776Z,17.27
2018-11-12T19:47:35.280Z,18.03
2018-11-12T19:50:04.070Z,18.10
2018-11-12T19:52:32.537Z,18.63
2018-11-12T19:55:01.049Z,18.67
2018-11-12T19:57:29.520Z,19.47
2018-11-12T19:59:57.979Z,19.10
2018-11-12T20:02:26.502Z,20.17
2018-11-12T20:04:54.953Z,19.90
2018-11-12T20:07:23.457Z,19.50
2018-11-12T20:09:51.936Z,19.63
2018-11-12T20:12:20.415Z,19.77
2018-11-12T20:14:48.892Z,19.30
2018-11-12T20:17:17.672Z,19.60
2018-11-12T20:19:46.131Z,19.93
2018-11-12T20:22:14.640Z,19.60
2018-11-12T20:24:43.118Z,17.87
2018-11-12T20:27:11.568Z,19.77
2018-11-12T20:29:40.044Z,19.23
2018-11-12T20:32:08.507Z,19.83
2018-11-12T20:34:37.109Z,18.87
2018-11-12T20:37:05.609Z,19.07
2018-11-12T20:39:34.136Z,17.50
2018-11-12T20:42:02.641Z,16.33
2018-11-12T20:44:31.118Z,17.03
2018-11-12T20:46:59.593Z,16.87
2018-11-12T20:49:28.192Z,17.73
2018-11-12T20:51:56.695Z,17.33
2018-11-12T20:54:25.179Z,17.23
2018-11-12T20:56:53.635Z,17.47
2018-11-12T20:59:22.133Z,16.00
2018-11-12T21:01:50.653Z,16.00
2018-11-12T21:04:19.133Z,15.53
2018-11-12T21:06:47.733Z,15.90
2018-11-12T21:09:16.234Z,15.30
2018-11-12T21:11:44.708Z,15.87
2018-11-12T21:14:13.255Z,16.17
2018-11-12T21:16:41.695Z,17.13
2018-11-12T21:19:10.295Z,17.63
2018-11-12T21:21:39.025Z,16.90
2018-11-12T21:24:07.458Z,16.13
2018-11-12T21:26:36.028Z,17.20
2018-11-12T21:29:04.635Z,17.70
2018-11-12T21:31:33.120Z,18.00
2018-11-12T21:34:01.593Z,18.80
2018-11-12T21:36:30.199Z,19.37
2018-11-12T21:38:58.703Z,18.93
2018-11-12T21:41:27.196Z,18.07
2018-11-12T21:43:55.886Z,18.27
2018-11-12T21:46:24.165Z,18.10
2018-11-12T21:48:52.655Z,18.40
2018-11-12T21:51:21.096Z,18.70
2018-11-12T21:53:49.532Z,19.17
2018-11-12T21:56:18.036Z,17.60
2018-11-12T21:58:46.554Z,18.40
2018-11-12T22:01:14.966Z,18.03
2018-11-12T22:03:43.445Z,17.27
2018-11-12T22:06:11.880Z,17.13
2018-11-12T22:08:40.486Z,18.03
2018-11-12T22:11:08.842Z,17.80
2018-11-12T22:13:37.300Z,16.57
2018-11-12T22:16:06.834Z,18.20
2018-11-12T22:18:35.410Z,16.70
2018-11-12T22:21:03.807Z,17.90
2018-11-12T22:23:32.312Z,18.43
2018-11-12T22:26:00.801Z,18.40
2018-11-12T22:28:29.217Z,18.30
2018-11-12T22:30:57.690Z,19.93
2018-11-12T22:33:26.184Z,20.63
2018-11-12T22:35:54.675Z,20.73
2018-11-12T22:38:23.082Z,20.50
2018-11-12T22:40:51.551Z,21.07
2018-11-12T22:43:19.993Z,21.57
2018-11-12T22:45:48.520Z,21.73
2018-11-12T22:48:16.932Z,21.87
2018-11-12T22:50:45.352Z,21.90
2018-11-12T22:53:13.831Z,21.50
2018-11-12T22:55:42.251Z,22.70
2018-11-12T22:58:10.725Z,21.53
2018-11-12T23:00:40.149Z,22.30
2018-11-12T23:03:08.958Z,22.17
2018-11-12T23:05:37.367Z,23.37
2018-11-12T23:08:05.803Z,22.63
2018-11-12T23:10:34.277Z,22.63
2018-11-12T23:13:02.690Z,22.23
2018-11-12T23:15:31.103Z,23.27
2018-11-12T23:17:59.630Z,23.10
2018-11-12T23:20:28.697Z,22.40
2018-11-12T23:22:57.132Z,23.87
2018-11-12T23:25:25.578Z,23.50
2018-11-12T23:27:54.498Z,23.27
2018-11-12T23:30:24.119Z,23.67
2018-11-12T23:32:52.553Z,24.07
2018-11-12T23:35:24.143Z,25.40
2018-11-12T23:37:52.559Z,24.70
2018-11-12T23:40:20.991Z,24.60
2018-11-12T23:42:49.405Z,25.47
2018-11-12T23:45:17.859Z,24.63
2018-11-12T23:47:46.335Z,25.80
2018-11-12T23:50:16.328Z,27.20
2018-11-12T23:52:45.392Z,25.33
2018-11-12T23:55:14.226Z,26.93
2018-11-12T23:57:43.014Z,26.03
